createdAt,value
2019-04-07T00:01:55.062Z,7.83
2019-04-07T00:04:23.734Z,7.79
2019-04-07T00:06:52.119Z,7.81
2019-04-07T00:09:20.559Z,7.80
2019-04-07T00:11:48.831Z,7.72
2019-04-07T00:14:17.188Z,7.67
2019-04-07T00:16:45.558Z,7.59
2019-04-07T00:19:13.829Z,7.53
2019-04-07T00:21:42.328Z,7.59
2019-04-07T00:24:10.638Z,7.50
2019-04-07T00:26:39.420Z,7.45
2019-04-07T00:29:07.670Z,7.44
2019-04-07T00:31:35.930Z,7.34
2019-04-07T00:34:04.209Z,7.26
2019-04-07T00:36:32.921Z,7.29
2019-04-07T00:39:01.566Z,7.35
2019-04-07T00:41:29.978Z,7.35
2019-04-07T00:43:58.234Z,7.31
2019-04-07T00:46:26.840Z,7.25
2019-04-07T00:48:55.147Z,7.20
2019-04-07T00:51:23.414Z,7.12
2019-04-07T00:53:51.960Z,7.15
2019-04-07T00:56:20.529Z,7.13
2019-04-07T00:58:48.811Z,7.05
2019-04-07T01:01:18.550Z,6.94
2019-04-07T01:03:46.861Z,6.89
2019-04-07T01:06:15.139Z,6.75
2019-04-07T01:08:43.746Z,6.65
2019-04-07T01:11:12.284Z,6.63
2019-04-07T01:13:40.506Z,6.70
2019-04-07T01:16:08.789Z,6.65
2019-04-07T01:18:37.164Z,6.67
2019-04-07T01:21:05.411Z,6.57
2019-04-07T01:23:33.734Z,6.58
2019-04-07T01:26:01.997Z,6.61
2019-04-07T01:28:30.256Z,6.61
2019-04-07T01:30:59.061Z,6.61
2019-04-07T01:33:27.762Z,6.62
2019-04-07T01:35:56.403Z,6.65
2019-04-07T01:38:24.679Z,6.63
2019-04-07T01:40:57.265Z,6.64
2019-04-07T01:43:27.190Z,6.63
2019-04-07T01:46:09.878Z,6.62
2019-04-07T01:48:48.490Z,6.60
2019-04-07T01:51:24.633Z,6.57
2019-04-07T01:54:10.130Z,6.55
2019-04-07T01:56:46.430Z,6.54
2019-04-07T01:59:32.524Z,6.55
2019-04-07T02:02:17.479Z,6.49
2019-04-07T02:04:47.919Z,6.38
2019-04-07T02:07:18.309Z,6.38
2019-04-07T02:10:04.408Z,6.37
2019-04-07T02:12:50.686Z,6.40
2019-04-07T02:15:39.373Z,6.37
2019-04-07T02:18:25.070Z,6.41
2019-04-07T02:20:58.842Z,6.42
2019-04-07T02:23:45.093Z,6.40
2019-04-07T02:26:21.468Z,6.42
2019-04-07T02:29:00.407Z,6.40
2019-04-07T02:31:30.319Z,6.31
2019-04-07T02:34:00.244Z,6.36
2019-04-07T02:36:36.107Z,6.37
2019-04-07T02:39:23.845Z,6.33
2019-04-07T02:42:10.993Z,6.33
2019-04-07T02:44:47.002Z,6.34
2019-04-07T02:47:28.495Z,6.26
2019-04-07T02:50:10.299Z,6.23
2019-04-07T02:52:40.192Z,6.11
2019-04-07T02:55:19.670Z,6.08
2019-04-07T02:57:49.529Z,6.01
2019-04-07T03:00:22.292Z,6.03
2019-04-07T03:02:52.290Z,6.06
2019-04-07T03:05:28.168Z,6.03
2019-04-07T03:07:58.121Z,6.05
2019-04-07T03:10:37.080Z,6.05
2019-04-07T03:13:09.672Z,6.09
2019-04-07T03:15:42.916Z,6.11
2019-04-07T03:18:29.295Z,6.07
2019-04-07T03:21:04.764Z,5.96
2019-04-07T03:23:41.571Z,6.00
2019-04-07T03:26:11.543Z,5.95
2019-04-07T03:28:53.237Z,5.96
2019-04-07T03:31:32.508Z,5.97
2019-04-07T03:34:04.708Z,6.00
2019-04-07T03:37:09.640Z,6.03
2019-04-07T03:39:17.339Z,6.03
2019-04-07T03:41:47.315Z,6.02
2019-04-07T03:44:17.244Z,6.05
2019-04-07T03:46:59.918Z,5.98
2019-04-07T03:49:29.883Z,5.86
2019-04-07T03:52:09.938Z,5.77
2019-04-07T03:54:52.703Z,5.75
2019-04-07T03:57:37.438Z,5.70
2019-04-07T04:00:08.507Z,5.67
2019-04-07T04:02:41.410Z,5.73
2019-04-07T04:05:14.731Z,5.78
2019-04-07T04:07:56.777Z,5.83
2019-04-07T04:10:30.135Z,5.83
2019-04-07T04:13:16.559Z,5.85
2019-04-07T04:15:46.859Z,5.84
2019-04-07T04:18:16.165Z,5.82
2019-04-07T04:20:44.543Z,5.75
2019-04-07T04:23:12.825Z,5.67
2019-04-07T04:25:41.098Z,5.60
2019-04-07T04:28:09.395Z,5.70
2019-04-07T04:30:37.692Z,5.65
2019-04-07T04:33:06.306Z,5.54
2019-04-07T04:35:34.652Z,5.50
2019-04-07T04:38:03.791Z,5.51
2019-04-07T04:40:32.426Z,5.53
2019-04-07T04:43:01.474Z,5.50
2019-04-07T04:45:29.767Z,5.60
2019-04-07T04:47:58.205Z,5.68
2019-04-07T04:50:27.440Z,5.68
2019-04-07T04:52:56.423Z,5.66
2019-04-07T04:55:25.458Z,5.61
2019-04-07T04:57:54.508Z,5.60
2019-04-07T05:00:22.763Z,5.54
2019-04-07T05:02:51.378Z,5.46
2019-04-07T05:05:20.099Z,5.45
2019-04-07T05:07:57.692Z,5.45
2019-04-07T05:10:19.256Z,5.35
2019-04-07T05:12:48.155Z,5.25
2019-04-07T05:15:16.456Z,5.28
2019-04-07T05:17:44.808Z,5.35
2019-04-07T05:20:13.558Z,5.48
2019-04-07T05:22:42.183Z,5.52
2019-04-07T05:25:10.553Z,5.58
2019-04-07T05:27:39.191Z,5.47
2019-04-07T05:30:07.843Z,5.46
2019-04-07T05:32:36.830Z,5.52
2019-04-07T05:35:07.775Z,5.58
2019-04-07T05:37:36.188Z,5.65
2019-04-07T05:40:05.783Z,5.75
2019-04-07T05:42:34.345Z,5.83
2019-04-07T05:45:02.939Z,5.86
2019-04-07T05:47:31.499Z,5.96
2019-04-07T05:50:02.817Z,6.03
2019-04-07T05:52:30.532Z,6.05
2019-04-07T05:54:58.853Z,6.11
2019-04-07T05:57:33.372Z,6.12
2019-04-07T05:59:59.242Z,6.22
2019-04-07T06:02:31.270Z,6.38
2019-04-07T06:04:59.477Z,6.46
2019-04-07T06:07:30.679Z,6.51
2019-04-07T06:09:57.778Z,6.65
2019-04-07T06:12:26.212Z,6.72
2019-04-07T06:14:55.156Z,6.85
2019-04-07T06:17:26.322Z,7.02
2019-04-07T06:19:53.560Z,7.10
2019-04-07T06:22:22.677Z,7.25
2019-04-07T06:24:56.854Z,7.37
2019-04-07T06:27:25.137Z,7.44
2019-04-07T06:29:57.181Z,7.55
2019-04-07T06:32:24.426Z,7.67
2019-04-07T06:34:54.550Z,7.78
2019-04-07T06:37:28.828Z,7.90
2019-04-07T06:39:53.661Z,8.00
2019-04-07T06:42:22.066Z,8.17
2019-04-07T06:44:52.008Z,8.21
2019-04-07T06:47:24.982Z,8.36
2019-04-07T06:49:57.642Z,8.56
2019-04-07T06:52:43.385Z,8.72
2019-04-07T06:55:22.701Z,8.84
2019-04-07T06:58:10.027Z,8.98
2019-04-07T07:00:57.641Z,9.10
2019-04-07T07:03:44.138Z,9.56
2019-04-07T07:06:16.469Z,9.56
2019-04-07T07:08:47.479Z,9.74
2019-04-07T07:11:30.867Z,9.92
2019-04-07T07:14:09.504Z,10.10
2019-04-07T07:16:46.842Z,10.10
2019-04-07T07:19:28.552Z,10.23
2019-04-07T07:22:07.741Z,10.37
2019-04-07T07:24:34.885Z,10.46
2019-04-07T07:27:07.197Z,10.69
2019-04-07T07:29:35.286Z,10.74
2019-04-07T07:32:06.326Z,10.86
2019-04-07T07:34:39.857Z,11.02
2019-04-07T07:37:08.441Z,11.26
2019-04-07T07:39:41.952Z,11.35
2019-04-07T07:42:09.404Z,11.49
2019-04-07T07:44:39.783Z,11.59
2019-04-07T07:47:08.190Z,11.67
2019-04-07T07:49:40.318Z,11.86
2019-04-07T07:52:08.721Z,12.01
2019-04-07T07:54:36.966Z,12.20
2019-04-07T07:57:06.923Z,12.21
2019-04-07T07:59:38.958Z,12.39
2019-04-07T08:02:05.275Z,12.61
2019-04-07T08:04:33.516Z,12.67
2019-04-07T08:07:05.497Z,12.78
2019-04-07T08:09:33.821Z,12.96
2019-04-07T08:12:03.478Z,13.17
2019-04-07T08:14:32.494Z,13.14
2019-04-07T08:17:03.351Z,13.40
2019-04-07T08:19:31.805Z,13.66
2019-04-07T08:22:00.640Z,13.68
2019-04-07T08:24:29.322Z,13.84
2019-04-07T08:26:59.038Z,13.98
2019-04-07T08:29:29.186Z,14.01
2019-04-07T08:31:58.765Z,14.01
2019-04-07T08:34:30.550Z,14.34
2019-04-07T08:37:00.866Z,14.48
2019-04-07T08:39:34.097Z,14.72
2019-04-07T08:41:59.454Z,14.94
2019-04-07T08:44:29.690Z,15.00
2019-04-07T08:46:58.190Z,15.18
2019-04-07T08:49:27.638Z,15.17
2019-04-07T08:51:56.118Z,15.22
2019-04-07T08:54:24.389Z,15.43
2019-04-07T08:56:56.294Z,15.55
2019-04-07T08:59:22.746Z,15.78
2019-04-07T09:01:53.469Z,15.93
2019-04-07T09:04:21.099Z,16.00
2019-04-07T09:06:50.251Z,16.08
2019-04-07T09:09:30.893Z,16.11
2019-04-07T09:11:53.010Z,16.19
2019-04-07T09:14:18.695Z,16.36
2019-04-07T09:17:03.555Z,16.47
2019-04-07T09:19:35.799Z,16.44
2019-04-07T09:22:23.157Z,16.67
2019-04-07T09:25:10.910Z,16.64
2019-04-07T09:27:48.583Z,16.68
2019-04-07T09:30:34.645Z,16.84
2019-04-07T09:33:20.529Z,16.93
2019-04-07T09:35:58.762Z,17.22
2019-04-07T09:38:31.009Z,17.45
2019-04-07T09:41:21.584Z,17.52
2019-04-07T09:43:50.734Z,17.52
2019-04-07T09:46:26.485Z,17.71
2019-04-07T09:49:10.998Z,17.79
2019-04-07T09:51:46.729Z,18.05
2019-04-07T09:54:20.651Z,18.10
2019-04-07T09:56:53.390Z,17.97
2019-04-07T09:59:29.685Z,17.89
2019-04-07T10:02:09.229Z,17.93
2019-04-07T10:04:55.404Z,17.94
2019-04-07T10:07:44.002Z,18.15
2019-04-07T10:10:14.868Z,18.21
2019-04-07T10:12:44.816Z,18.34
2019-04-07T10:15:31.727Z,18.39
2019-04-07T10:18:18.001Z,18.38
2019-04-07T10:20:47.982Z,18.52
2019-04-07T10:23:17.938Z,18.70
2019-04-07T10:25:50.828Z,18.77
2019-04-07T10:28:20.735Z,18.70
2019-04-07T10:30:54.066Z,18.79
2019-04-07T10:33:34.324Z,18.72
2019-04-07T10:36:07.898Z,18.37
2019-04-07T10:38:41.437Z,18.56
2019-04-07T10:41:15.252Z,18.54
2019-04-07T10:43:48.707Z,18.63
2019-04-07T10:46:34.583Z,18.73
2019-04-07T10:49:13.204Z,19.04
2019-04-07T10:51:45.963Z,19.19
2019-04-07T10:54:18.680Z,19.17
2019-04-07T10:56:55.255Z,19.26
2019-04-07T10:59:25.613Z,19.28
2019-04-07T11:02:01.422Z,18.87
2019-04-07T11:04:34.110Z,18.94
2019-04-07T11:07:10.533Z,18.88
2019-04-07T11:09:46.192Z,19.00
2019-04-07T11:12:16.134Z,19.28
2019-04-07T11:14:46.599Z,19.33
2019-04-07T11:17:29.165Z,19.49
2019-04-07T11:19:59.167Z,19.34
2019-04-07T11:22:45.012Z,19.44
2019-04-07T11:25:18.343Z,19.42
2019-04-07T11:27:51.038Z,19.21
2019-04-07T11:30:21.362Z,19.30
2019-04-07T11:32:57.614Z,19.36
2019-04-07T11:35:29.901Z,19.61
2019-04-07T11:37:59.196Z,19.55
2019-04-07T11:40:30.381Z,19.56
2019-04-07T11:43:04.358Z,19.68
2019-04-07T11:45:34.455Z,19.86
2019-04-07T11:48:19.187Z,19.94
2019-04-07T11:50:52.207Z,19.91
2019-04-07T11:53:39.415Z,19.70
2019-04-07T11:56:21.732Z,19.68
2019-04-07T11:58:51.713Z,19.61
2019-04-07T12:01:36.550Z,19.69
2019-04-07T12:04:16.591Z,19.71
2019-04-07T12:06:49.880Z,19.81
2019-04-07T12:09:29.255Z,19.85
2019-04-07T12:11:59.338Z,19.83
2019-04-07T12:14:35.015Z,19.71
2019-04-07T12:17:09.336Z,19.45
2019-04-07T12:19:58.155Z,19.86
2019-04-07T12:22:28.241Z,20.07
2019-04-07T12:25:03.218Z,20.10
2019-04-07T12:27:48.416Z,20.03
2019-04-07T12:30:28.407Z,20.00
2019-04-07T12:32:58.600Z,19.95
2019-04-07T12:35:32.591Z,19.93
2019-04-07T12:38:12.291Z,20.04
2019-04-07T12:41:09.826Z,20.01
2019-04-07T12:43:39.202Z,19.65
2019-04-07T12:46:21.149Z,19.75
2019-04-07T12:49:09.382Z,19.54
2019-04-07T12:51:54.329Z,19.52
2019-04-07T12:54:34.338Z,19.79
2019-04-07T12:57:20.184Z,20.08
2019-04-07T12:59:51.399Z,20.06
2019-04-07T13:02:25.699Z,20.11
2019-04-07T13:05:13.611Z,20.15
2019-04-07T13:07:48.421Z,20.23
2019-04-07T13:10:20.734Z,20.08
2019-04-07T13:12:55.988Z,20.27
2019-04-07T13:15:31.469Z,20.30
2019-04-07T13:18:13.765Z,20.25
2019-04-07T13:20:51.825Z,20.00
2019-04-07T13:23:23.945Z,20.13
2019-04-07T13:25:56.711Z,20.17
2019-04-07T13:28:35.916Z,20.21
2019-04-07T13:31:05.814Z,20.22
2019-04-07T13:33:41.568Z,20.23
2019-04-07T13:36:17.603Z,20.21
2019-04-07T13:38:47.847Z,20.10
2019-04-07T13:41:23.772Z,20.22
2019-04-07T13:43:56.079Z,20.11
2019-04-07T13:46:35.415Z,19.71
2019-04-07T13:49:16.291Z,19.58
2019-04-07T13:52:01.028Z,19.55
2019-04-07T13:54:47.151Z,19.30
2019-04-07T13:57:26.156Z,19.19
2019-04-07T14:00:13.420Z,19.24
2019-04-07T14:02:44.316Z,19.16
2019-04-07T14:05:26.298Z,19.25
2019-04-07T14:08:00.111Z,19.34
2019-04-07T14:10:46.135Z,19.35
2019-04-07T14:13:16.083Z,19.16
2019-04-07T14:15:46.428Z,19.10
2019-04-07T14:18:19.175Z,19.16
2019-04-07T14:20:52.776Z,19.29
2019-04-07T14:23:31.600Z,19.55
2019-04-07T14:26:10.327Z,19.62
2019-04-07T14:28:45.964Z,19.72
2019-04-07T14:31:32.481Z,19.64
2019-04-07T14:34:05.513Z,19.64
2019-04-07T14:36:47.960Z,19.73
2019-04-07T14:39:21.632Z,19.72
2019-04-07T14:42:06.705Z,19.73
2019-04-07T14:44:35.840Z,19.50
2019-04-07T14:47:08.798Z,19.60
2019-04-07T14:49:57.373Z,19.47
2019-04-07T14:52:41.072Z,19.55
2019-04-07T14:55:23.716Z,19.53
2019-04-07T14:57:54.592Z,19.59
2019-04-07T15:00:36.392Z,19.82
2019-04-07T15:03:05.816Z,19.95
2019-04-07T15:05:41.871Z,19.96
2019-04-07T15:08:24.697Z,20.04
2019-04-07T15:10:58.236Z,20.13
2019-04-07T15:13:29.423Z,20.28
2019-04-07T15:15:58.309Z,20.37
2019-04-07T15:18:28.659Z,20.29
2019-04-07T15:20:59.405Z,20.17
2019-04-07T15:23:33.834Z,20.11
2019-04-07T15:26:06.741Z,20.17
2019-04-07T15:28:35.785Z,20.40
2019-04-07T15:31:04.344Z,20.20
2019-04-07T15:33:34.082Z,20.26
2019-04-07T15:36:02.689Z,20.20
2019-04-07T15:38:31.317Z,20.16
2019-04-07T15:41:01.096Z,20.07
2019-04-07T15:43:33.041Z,19.74
2019-04-07T15:46:00.116Z,19.46
2019-04-07T15:48:28.577Z,19.41
2019-04-07T15:51:00.927Z,19.47
2019-04-07T15:53:27.617Z,19.27
2019-04-07T15:56:02.027Z,19.07
2019-04-07T15:58:27.621Z,18.92
2019-04-07T16:00:56.061Z,18.79
2019-04-07T16:03:24.277Z,18.69
2019-04-07T16:05:53.403Z,18.44
2019-04-07T16:08:21.704Z,18.19
2019-04-07T16:10:52.055Z,18.08
2019-04-07T16:13:20.041Z,17.97
2019-04-07T16:15:52.826Z,18.02
2019-04-07T16:18:18.961Z,17.92
2019-04-07T16:20:47.251Z,17.83
2019-04-07T16:23:18.345Z,17.79
2019-04-07T16:25:46.363Z,17.72
2019-04-07T16:28:16.036Z,17.63
2019-04-07T16:30:48.526Z,17.51
2019-04-07T16:33:15.231Z,17.55
2019-04-07T16:35:43.967Z,17.49
2019-04-07T16:38:14.153Z,17.35
2019-04-07T16:40:43.448Z,17.46
2019-04-07T16:43:15.400Z,17.32
2019-04-07T16:45:44.104Z,17.21
2019-04-07T16:48:11.722Z,17.28
2019-04-07T16:50:40.028Z,17.17
2019-04-07T16:53:09.225Z,17.13
2019-04-07T16:55:40.287Z,17.15
2019-04-07T16:58:09.782Z,17.22
2019-04-07T17:00:38.402Z,17.09
2019-04-07T17:03:08.421Z,16.99
2019-04-07T17:05:37.526Z,16.96
2019-04-07T17:08:05.864Z,16.85
2019-04-07T17:10:35.387Z,16.80
2019-04-07T17:13:15.449Z,16.67
2019-04-07T17:15:37.452Z,16.47
2019-04-07T17:18:08.175Z,16.36
2019-04-07T17:20:37.733Z,16.33
2019-04-07T17:23:07.104Z,16.26
2019-04-07T17:25:35.908Z,16.07
2019-04-07T17:28:05.334Z,15.94
2019-04-07T17:30:35.928Z,15.83
2019-04-07T17:33:05.221Z,15.75
2019-04-07T17:35:35.568Z,15.60
2019-04-07T17:38:06.687Z,15.50
2019-04-07T17:40:37.656Z,15.42
2019-04-07T17:43:25.684Z,15.35
2019-04-07T17:45:48.074Z,15.31
2019-04-07T17:48:21.359Z,15.20
2019-04-07T17:50:51.392Z,15.15
2019-04-07T17:53:38.158Z,15.05
2019-04-07T17:56:18.056Z,14.98
2019-04-07T17:58:45.790Z,14.89
2019-04-07T18:01:22.295Z,14.81
2019-04-07T18:03:59.462Z,14.63
2019-04-07T18:06:32.102Z,14.59
2019-04-07T18:09:19.732Z,14.50
2019-04-07T18:12:04.395Z,14.51
2019-04-07T18:14:31.810Z,14.41
2019-04-07T18:17:02.425Z,14.20
2019-04-07T18:19:38.137Z,13.99
2019-04-07T18:22:08.205Z,13.75
2019-04-07T18:24:38.160Z,13.52
2019-04-07T18:27:12.417Z,13.48
2019-04-07T18:29:39.762Z,13.43
2019-04-07T18:32:27.524Z,13.40
2019-04-07T18:35:14.127Z,13.34
2019-04-07T18:37:50.121Z,13.34
2019-04-07T18:40:27.326Z,13.31
2019-04-07T18:43:14.568Z,13.22
2019-04-07T18:45:59.546Z,13.07
2019-04-07T18:48:29.468Z,12.92
2019-04-07T18:51:07.977Z,12.88
2019-04-07T18:53:37.361Z,12.84
2019-04-07T18:56:10.755Z,12.71
2019-04-07T18:58:46.991Z,12.68
2019-04-07T19:01:16.914Z,12.60
2019-04-07T19:04:02.458Z,12.39
2019-04-07T19:06:50.293Z,12.30
2019-04-07T19:09:38.029Z,12.30
2019-04-07T19:12:24.779Z,12.29
2019-04-07T19:15:07.900Z,12.21
2019-04-07T19:17:54.680Z,12.26
2019-04-07T19:20:34.131Z,12.20
2019-04-07T19:23:04.406Z,12.07
2019-04-07T19:25:34.335Z,11.86
2019-04-07T19:28:20.486Z,11.77
2019-04-07T19:30:51.644Z,11.61
2019-04-07T19:33:38.207Z,11.60
2019-04-07T19:36:24.338Z,11.56
2019-04-07T19:39:12.016Z,11.48
2019-04-07T19:41:44.735Z,11.48
2019-04-07T19:44:18.773Z,11.34
2019-04-07T19:47:00.027Z,11.30
2019-04-07T19:49:38.930Z,11.19
2019-04-07T19:52:20.944Z,11.13
2019-04-07T19:55:05.908Z,11.07
2019-04-07T19:57:44.925Z,11.06
2019-04-07T20:00:31.180Z,11.04
2019-04-07T20:03:17.933Z,10.97
2019-04-07T20:05:50.173Z,10.95
2019-04-07T20:08:20.696Z,10.87
2019-04-07T20:10:52.294Z,10.81
2019-04-07T20:13:28.235Z,10.70
2019-04-07T20:15:59.159Z,10.64
2019-04-07T20:18:33.030Z,10.67
2019-04-07T20:21:17.440Z,10.59
2019-04-07T20:24:05.009Z,10.52
2019-04-07T20:26:40.582Z,10.51
2019-04-07T20:29:11.101Z,10.43
2019-04-07T20:31:54.594Z,10.39
2019-04-07T20:34:25.290Z,10.32
2019-04-07T20:36:57.900Z,10.36
2019-04-07T20:39:32.602Z,10.27
2019-04-07T20:42:01.948Z,10.36
2019-04-07T20:44:58.394Z,10.29
2019-04-07T20:47:19.691Z,10.20
2019-04-07T20:49:58.856Z,10.15
2019-04-07T20:52:29.863Z,10.13
2019-04-07T20:55:04.783Z,10.07
2019-04-07T20:57:53.909Z,10.10
2019-04-07T21:00:38.223Z,10.02
2019-04-07T21:03:26.781Z,9.96
2019-04-07T21:06:12.647Z,9.95
2019-04-07T21:08:48.169Z,9.86
2019-04-07T21:11:21.577Z,9.86
2019-04-07T21:13:52.425Z,9.80
2019-04-07T21:16:31.220Z,9.78
2019-04-07T21:19:09.851Z,9.76
2019-04-07T21:21:57.653Z,9.72
2019-04-07T21:24:30.359Z,9.80
2019-04-07T21:27:12.301Z,9.68
2019-04-07T21:29:51.128Z,9.29
2019-04-07T21:32:23.628Z,9.43
2019-04-07T21:34:53.589Z,9.43
2019-04-07T21:37:32.650Z,9.39
2019-04-07T21:40:17.569Z,9.39
2019-04-07T21:43:02.653Z,9.40
2019-04-07T21:45:53.051Z,9.35
2019-04-07T21:48:39.122Z,9.31
2019-04-07T21:51:13.482Z,9.22
2019-04-07T21:53:57.452Z,9.18
2019-04-07T21:56:39.087Z,9.10
2019-04-07T21:59:14.940Z,9.14
2019-04-07T22:01:47.946Z,9.07
2019-04-07T22:04:20.668Z,9.10
2019-04-07T22:06:50.804Z,9.05
2019-04-07T22:09:35.855Z,9.02
2019-04-07T22:12:04.123Z,9.06
2019-04-07T22:14:32.398Z,9.05
2019-04-07T22:17:02.929Z,8.99
2019-04-07T22:19:30.650Z,8.98
2019-04-07T22:21:58.939Z,9.00
2019-04-07T22:24:31.277Z,9.01
2019-04-07T22:26:57.225Z,8.96
2019-04-07T22:29:25.462Z,8.92
2019-04-07T22:31:55.610Z,8.85
2019-04-07T22:34:24.768Z,8.90
2019-04-07T22:36:53.757Z,8.94
2019-04-07T22:39:22.599Z,8.75
2019-04-07T22:41:50.908Z,8.62
2019-04-07T22:44:20.377Z,8.56
2019-04-07T22:46:51.221Z,8.66
2019-04-07T22:49:19.810Z,8.69
2019-04-07T22:51:50.430Z,8.72
2019-04-07T22:54:18.903Z,8.70
2019-04-07T22:56:47.126Z,8.73
2019-04-07T22:59:15.483Z,8.68
2019-04-07T23:01:43.735Z,8.52
2019-04-07T23:04:12.050Z,8.38
2019-04-07T23:06:40.452Z,8.20
2019-04-07T23:09:08.728Z,8.08
2019-04-07T23:11:37.638Z,8.15
2019-04-07T23:14:06.102Z,8.20
2019-04-07T23:16:34.366Z,8.20
2019-04-07T23:19:02.768Z,8.08
2019-04-07T23:21:31.792Z,8.02
2019-04-07T23:24:01.061Z,7.77
2019-04-07T23:26:29.889Z,7.66
2019-04-07T23:28:58.474Z,7.62
2019-04-07T23:31:27.879Z,7.73
2019-04-07T23:33:56.519Z,7.79
2019-04-07T23:36:24.855Z,7.79
2019-04-07T23:38:53.830Z,7.80
2019-04-07T23:41:22.240Z,7.78
2019-04-07T23:43:50.597Z,7.69
2019-04-07T23:46:24.287Z,7.65
2019-04-07T23:48:49.550Z,7.63
2019-04-07T23:51:18.565Z,7.60
2019-04-07T23:54:07.247Z,7.65
2019-04-07T23:56:35.712Z,7.66
2019-04-07T23:59:04.020Z,7.56
